Time;durP1;ratioP1;P1;durP2;ratioP2;P2;SDS_P1;SDS_P2;PMS_P1;PMS_P2;Temp;Humidity;BMP_temperature;BMP_pressure;BME280_temperature;BME280_humidity;BME280_pressure;Samples;Min_cycle;Max_cycle;Signal;HPM_P1;HPM_P2
2022/05/29 00:01:39;;;;;;;;;;;;;;;10.79;83.20;97934.55;1706682;83;22040;-83
2022/05/29 00:04:05;;;;;;;;;;;;;;;10.77;83.34;97935.97;1713740;82;20979;-87
2022/05/29 00:06:33;;;;;;;;;;;;;;;10.71;83.47;97940.84;1712267;83;21003;-88
2022/05/29 00:08:59;;;;;;;;;;;;;;;10.67;83.67;97943.36;1711458;82;20757;-85
2022/05/29 00:11:25;;;;;;;;;;;;;;;10.66;83.89;97945.13;1712410;83;20247;-85
2022/05/29 00:13:51;;;;;;;;;;;;;;;10.73;84.16;97941.09;1711388;83;22029;-85
2022/05/29 00:16:23;;;;;;;;;;;;;;;10.80;84.39;97944.07;1713225;83;21198;-82
2022/05/29 00:18:49;;;;;;;;;;;;;;;10.78;84.53;97942.87;1710409;83;25278;-82
2022/05/29 00:21:15;;;;;;;;;;;;;;;10.69;84.57;97937.53;1713647;82;20259;-82
2022/05/29 00:23:42;;;;;;;;;;;;;;;10.66;84.68;97942.52;1712004;83;20453;-83
2022/05/29 00:26:08;;;;;;;;;;;;;;;10.64;84.78;97937.03;1715257;83;22697;-83
2022/05/29 00:28:35;;;;;;;;;;;;;;;10.59;84.89;97933.95;1713652;83;25957;-87
2022/05/29 00:31:01;;;;;;;;;;;;;;;10.62;85.07;97933.72;1715457;83;24483;-83
2022/05/29 00:33:27;;;;;;;;;;;;;;;10.69;85.23;97939.64;1713138;83;20268;-83
2022/05/29 00:35:53;;;;;;;;;;;;;;;10.74;85.35;97941.93;1714313;83;20723;-83
2022/05/29 00:38:19;;;;;;;;;;;;;;;10.75;85.44;97936.55;1713732;83;22839;-85
2022/05/29 00:40:50;;;;;;;;;;;;;;;10.70;85.42;97940.01;1713537;82;25992;-87
2022/05/29 00:43:16;;;;;;;;;;;;;;;10.57;85.33;97935.87;1713733;82;24531;-87
2022/05/29 00:45:46;;;;;;;;;;;;;;;10.47;85.35;97940.48;1696190;81;20291;-85
2022/05/29 00:48:17;;;;;;;;;;;;;;;10.38;85.40;97940.37;1675872;84;24772;-86
2022/05/29 00:50:44;;;;;;;;;;;;;;;10.35;85.65;97934.91;1677769;84;22094;-86
2022/05/29 00:53:10;;;;;;;;;;;;;;;10.39;85.87;97936.80;1677197;84;26092;-86
2022/05/29 00:55:36;;;;;;;;;;;;;;;10.36;86.05;97932.66;1676736;84;24491;-86
2022/05/29 00:58:04;;;;;;;;;;;;;;;10.35;86.19;97930.16;1675968;84;20287;-88
2022/05/29 01:00:33;;;;;;;;;;;;;;;10.37;86.34;97928.23;1677706;84;24818;-88
2022/05/29 01:03:12;;;;;;;;;;;;;;;10.38;86.39;97918.97;1675714;84;22097;-84
2022/05/29 01:05:38;;;;;;;;;;;;;;;10.37;86.43;97915.98;1676509;82;25983;-84
2022/05/29 01:08:12;;;;;;;;;;;;;;;10.35;86.45;97917.91;1673914;84;24392;-86
2022/05/29 01:10:55;;;;;;;;;;;;;;;10.31;86.49;97914.34;1671127;84;20258;-85
2022/05/29 01:13:29;;;;;;;;;;;;;;;10.30;86.57;97912.67;1631258;87;25556;-85
2022/05/29 01:16:12;;;;;;;;;;;;;;;10.26;86.59;97908.14;1621596;87;22090;-85
2022/05/29 01:18:39;;;;;;;;;;;;;;;10.21;86.55;97911.58;1632318;86;26060;-84
2022/05/29 01:21:07;;;;;;;;;;;;;;;10.16;86.59;97917.64;1626122;87;24541;-82
2022/05/29 01:23:55;;;;;;;;;;;;;;;10.14;86.70;97914.77;1638223;86;20259;-87
2022/05/29 01:26:29;;;;;;;;;;;;;;;10.07;86.78;97919.63;1648036;86;24768;-87
2022/05/29 01:29:02;;;;;;;;;;;;;;;9.98;86.83;97917.72;1641825;86;22759;-82
2022/05/29 01:31:42;;;;;;;;;;;;;;;9.95;86.99;97916.16;1645905;86;26002;-88
2022/05/29 01:34:11;;;;;;;;;;;;;;;9.90;87.18;97913.05;1646238;86;24667;-88
2022/05/29 01:36:42;;;;;;;;;;;;;;;9.83;87.38;97914.92;1635720;86;20255;-82
2022/05/29 01:39:13;;;;;;;;;;;;;;;9.79;87.58;97909.11;1650285;86;24946;-82
2022/05/29 01:41:44;;;;;;;;;;;;;;;9.72;87.80;97917.04;1641631;86;22649;-86
2022/05/29 01:44:11;;;;;;;;;;;;;;;9.64;87.96;97911.57;1641035;86;26074;-86
2022/05/29 01:46:37;;;;;;;;;;;;;;;9.62;88.23;97910.37;1648841;84;25240;-86
2022/05/29 01:49:05;;;;;;;;;;;;;;;9.58;88.47;97914.63;1660219;84;20499;-86
2022/05/29 01:51:33;;;;;;;;;;;;;;;9.52;88.67;97915.92;1657818;83;24780;-83
2022/05/29 01:54:01;;;;;;;;;;;;;;;9.44;88.84;97912.19;1658664;86;21939;-83
2022/05/29 01:56:32;;;;;;;;;;;;;;;9.41;89.08;97915.88;1659052;83;26195;-88
2022/05/29 01:59:00;;;;;;;;;;;;;;;9.37;89.28;97924.05;1658499;84;25477;-82
2022/05/29 02:01:31;;;;;;;;;;;;;;;9.30;89.44;97920.20;1635345;86;20294;-83
2022/05/29 02:03:58;;;;;;;;;;;;;;;9.23;89.60;97921.95;1659137;86;24759;-83
2022/05/29 02:06:25;;;;;;;;;;;;;;;9.19;89.79;97920.98;1659491;86;21986;-82
2022/05/29 02:09:02;;;;;;;;;;;;;;;9.12;89.99;97925.81;1660625;83;26805;-83
2022/05/29 02:11:30;;;;;;;;;;;;;;;9.10;90.20;97921.66;1658795;84;24437;-87
2022/05/29 02:14:13;;;;;;;;;;;;;;;9.08;90.51;97917.02;1656171;86;20330;-84
2022/05/29 02:16:41;;;;;;;;;;;;;;;9.00;90.74;97920.16;1655892;86;24837;-84
2022/05/29 02:19:12;;;;;;;;;;;;;;;8.91;90.90;97922.13;1657553;86;21990;-84
2022/05/29 02:21:45;;;;;;;;;;;;;;;8.86;91.07;97926.84;1656756;86;26756;-89
2022/05/29 02:24:16;;;;;;;;;;;;;;;8.81;91.28;97925.04;1657380;84;24426;-89
2022/05/29 02:26:44;;;;;;;;;;;;;;;8.75;91.50;97925.00;1658972;84;20295;-89
2022/05/29 02:29:11;;;;;;;;;;;;;;;8.71;91.75;97927.47;1659067;86;24751;-89
2022/05/29 02:31:39;;;;;;;;;;;;;;;8.72;92.02;97926.53;1656065;86;22729;-84
2022/05/29 02:34:19;;;;;;;;;;;;;;;8.72;92.25;97925.23;1657864;84;25954;-84
2022/05/29 02:37:05;;;;;;;;;;;;;;;8.73;92.49;97925.56;1649488;85;24418;-88
2022/05/29 02:39:32;;;;;;;;;;;;;;;8.74;92.73;97926.41;1658734;84;20252;-84
2022/05/29 02:42:17;;;;;;;;;;;;;;;8.70;92.93;97933.63;1660599;82;24831;-85
2022/05/29 02:44:54;;;;;;;;;;;;;;;8.65;93.10;97935.72;1657665;86;21957;-85
2022/05/29 02:47:31;;;;;;;;;;;;;;;8.61;93.32;97932.97;1658381;83;26042;-84
2022/05/29 02:50:05;;;;;;;;;;;;;;;8.54;93.47;97927.81;1660128;84;25166;-85
2022/05/29 02:52:31;;;;;;;;;;;;;;;8.50;93.65;97928.14;1661963;84;20213;-84
2022/05/29 02:54:58;;;;;;;;;;;;;;;8.46;93.81;97926.19;1656475;84;25885;-83
2022/05/29 02:57:24;;;;;;;;;;;;;;;8.42;94.02;97926.52;1658357;85;22060;-85
2022/05/29 02:59:52;;;;;;;;;;;;;;;8.35;94.20;97922.19;1653975;86;26107;-85
2022/05/29 03:02:20;;;;;;;;;;;;;;;8.33;94.43;97926.23;1654934;84;24464;-83
2022/05/29 03:05:00;;;;;;;;;;;;;;;8.33;94.69;97926.23;1634813;86;20297;-83
2022/05/29 03:07:39;;;;;;;;;;;;;;;8.34;94.96;97923.99;1657499;86;24786;-87
2022/05/29 03:10:14;;;;;;;;;;;;;;;8.34;95.26;97923.99;1654035;86;22233;-83
2022/05/29 03:12:42;;;;;;;;;;;;;;;8.37;95.59;97921.16;1655112;84;26059;-83
2022/05/29 03:15:12;;;;;;;;;;;;;;;8.33;95.84;97924.92;1658424;84;24576;-85
2022/05/29 03:17:40;;;;;;;;;;;;;;;8.31;96.02;97925.48;1657814;85;20219;-85
2022/05/29 03:20:13;;;;;;;;;;;;;;;8.29;96.21;97920.00;1657593;83;24926;-85
2022/05/29 03:22:47;;;;;;;;;;;;;;;8.24;96.42;97922.89;1658570;84;22159;-85
2022/05/29 03:25:33;;;;;;;;;;;;;;;8.21;96.63;97927.03;1659565;83;25941;-87
2022/05/29 03:28:00;;;;;;;;;;;;;;;8.21;96.93;97923.13;1658739;86;24631;-82
2022/05/29 03:30:28;;;;;;;;;;;;;;;8.26;97.24;97926.24;1659995;86;20312;-83
2022/05/29 03:32:56;;;;;;;;;;;;;;;8.36;97.68;97918.64;1658093;84;24768;-83
2022/05/29 03:35:24;;;;;;;;;;;;;;;8.48;98.14;97920.41;1659868;86;22948;-82
2022/05/29 03:37:50;;;;;;;;;;;;;;;8.62;98.57;97921.57;1657727;85;27030;-83
2022/05/29 03:40:16;;;;;;;;;;;;;;;8.77;99.02;97923.59;1659298;86;24396;-88
2022/05/29 03:42:42;;;;;;;;;;;;;;;8.95;99.47;97926.66;1659695;86;20460;-88
2022/05/29 03:45:09;;;;;;;;;;;;;;;9.12;99.83;97923.67;1660019;86;24840;-88
2022/05/29 03:47:36;;;;;;;;;;;;;;;9.30;100.00;97925.43;1664009;84;21924;-84
2022/05/29 03:50:02;;;;;;;;;;;;;;;9.45;100.00;97919.08;1710815;83;26068;-84
2022/05/29 03:52:28;;;;;;;;;;;;;;;9.64;100.00;97923.33;1710947;83;24499;-84
2022/05/29 03:54:54;;;;;;;;;;;;;;;9.79;100.00;97918.73;1708639;83;20455;-85
2022/05/29 03:57:20;;;;;;;;;;;;;;;9.95;100.00;97917.94;1710407;83;20350;-88
2022/05/29 03:59:46;;;;;;;;;;;;;;;10.09;100.00;97915.92;1711108;83;21943;-88
2022/05/29 04:02:13;;;;;;;;;;;;;;;10.25;100.00;97924.80;1708632;83;20965;-82
2022/05/29 04:04:39;;;;;;;;;;;;;;;10.44;100.00;97926.81;1710144;83;24483;-83
2022/05/29 04:07:07;;;;;;;;;;;;;;;10.63;100.00;97929.69;1709522;83;54383;-84
2022/05/29 04:12:25;;;;;;;;;;;;;;;11.06;100.00;97929.75;1707226;83;22109;-83
2022/05/29 04:14:51;;;;;;;;;;;;;;;11.32;100.00;97935.03;1709878;82;26008;-83
2022/05/29 04:17:18;;;;;;;;;;;;;;;11.51;100.00;97935.66;1711337;83;24406;-83
2022/05/29 04:19:48;;;;;;;;;;;;;;;11.70;100.00;97934.52;1710094;83;20243;-84
2022/05/29 04:22:19;;;;;;;;;;;;;;;11.89;100.00;97936.47;1707337;83;24908;-84
2022/05/29 04:24:47;;;;;;;;;;;;;;;12.16;100.00;97931.54;1709035;83;38586;-84
2022/05/29 04:27:14;;;;;;;;;;;;;;;12.40;100.00;97933.05;1708929;82;25962;-84
2022/05/29 04:29:40;;;;;;;;;;;;;;;12.52;100.00;97946.45;1709152;83;25187;-86
2022/05/29 04:34:55;;;;;;;;;;;;;;;12.51;99.34;97937.74;1709547;83;25392;-88
2022/05/29 04:37:27;;;;;;;;;;;;;;;12.42;98.44;97941.64;1731778;82;20146;-87
2022/05/29 04:39:57;;;;;;;;;;;;;;;12.38;97.85;97948.13;1710569;83;26689;-86
2022/05/29 04:42:23;;;;;;;;;;;;;;;12.40;97.43;97947.48;1710404;83;24472;-86
2022/05/29 04:44:49;;;;;;;;;;;;;;;12.53;97.21;97947.64;1710221;83;20735;-84
2022/05/29 04:47:15;;;;;;;;;;;;;;;12.63;96.87;97950.78;1707032;81;20249;-84
2022/05/29 04:49:42;;;;;;;;;;;;;;;12.65;96.45;97949.70;1702486;84;21961;-83
2022/05/29 04:52:11;;;;;;;;;;;;;;;12.68;96.08;97948.11;1705531;82;25906;-83
2022/05/29 04:54:38;;;;;;;;;;;;;;;12.71;95.82;97949.14;1674554;85;24505;-85
2022/05/29 04:57:06;;;;;;;;;;;;;;;12.77;95.58;97947.78;1646873;86;20199;-86
2022/05/29 04:59:32;;;;;;;;;;;;;;;12.75;95.19;97949.73;1638025;86;24839;-86
2022/05/29 05:01:59;;;;;;;;;;;;;;;12.66;94.76;97948.71;1635972;85;21827;-86
2022/05/29 05:04:25;;;;;;;;;;;;;;;12.61;94.44;97943.50;1712279;82;26020;-86
2022/05/29 05:06:54;;;;;;;;;;;;;;;12.64;94.25;97941.47;1714408;82;24137;-87
2022/05/29 05:09:20;;;;;;;;;;;;;;;12.67;94.03;97938.56;1714190;82;20562;-87
2022/05/29 05:11:47;;;;;;;;;;;;;;;12.71;93.94;97937.33;1714422;82;20827;-84
2022/05/29 05:14:13;;;;;;;;;;;;;;;12.74;93.81;97940.19;1714953;83;21938;-84
2022/05/29 05:16:39;;;;;;;;;;;;;;;12.72;93.65;97931.59;1711490;82;26143;-84
2022/05/29 05:19:05;;;;;;;;;;;;;;;12.72;93.60;97936.85;1715891;82;20310;-88
2022/05/29 05:21:31;;;;;;;;;;;;;;;12.76;93.64;97938.27;1711911;82;20378;-84
2022/05/29 05:23:57;;;;;;;;;;;;;;;12.79;93.60;97934.89;1730027;82;20228;-83
2022/05/29 05:26:24;;;;;;;;;;;;;;;12.79;93.39;97931.43;1714463;82;21073;-83
2022/05/29 05:28:50;;;;;;;;;;;;;;;12.78;93.18;97933.70;1714547;83;26229;-89
2022/05/29 05:31:16;;;;;;;;;;;;;;;12.89;93.31;97935.75;1714246;83;20253;-83
2022/05/29 05:33:48;;;;;;;;;;;;;;;12.85;93.14;97936.98;1711700;83;20278;-83
2022/05/29 05:36:15;;;;;;;;;;;;;;;12.83;92.90;97933.65;1714342;83;24843;-86
2022/05/29 05:38:41;;;;;;;;;;;;;;;12.79;92.78;97938.83;1715007;83;22755;-85
2022/05/29 05:41:09;;;;;;;;;;;;;;;12.63;92.48;97938.48;1715284;83;26144;-88
2022/05/29 05:43:35;;;;;;;;;;;;;;;12.58;92.42;97931.49;1712395;83;24492;-82
2022/05/29 05:46:01;;;;;;;;;;;;;;;12.70;92.63;97934.86;1716357;83;20885;-82
2022/05/29 05:48:30;;;;;;;;;;;;;;;12.69;92.54;97937.13;1720971;82;24798;-83
2022/05/29 05:50:57;;;;;;;;;;;;;;;12.71;92.43;97935.22;1723566;82;22057;-89
2022/05/29 05:53:23;;;;;;;;;;;;;;;12.81;92.55;97926.89;1723013;83;26058;-89
2022/05/29 05:55:49;;;;;;;;;;;;;;;12.87;92.46;97930.30;1742697;81;25188;-88
2022/05/29 05:58:15;;;;;;;;;;;;;;;13.01;92.29;97935.16;1723300;83;20208;-83
2022/05/29 06:00:45;;;;;;;;;;;;;;;12.91;91.60;97932.99;1722383;83;24811;-85
2022/05/29 06:03:11;;;;;;;;;;;;;;;12.86;91.14;97934.72;1723197;83;21959;-86
2022/05/29 06:05:38;;;;;;;;;;;;;;;12.82;90.72;97932.49;1722059;83;26101;-84
2022/05/29 06:08:05;;;;;;;;;;;;;;;12.66;89.99;97926.88;1743883;81;24611;-84
2022/05/29 06:10:31;;;;;;;;;;;;;;;12.64;89.67;97928.34;1720021;82;20304;-89
2022/05/29 06:13:01;;;;;;;;;;;;;;;12.78;89.79;97921.88;1721239;83;24850;-83
2022/05/29 06:15:27;;;;;;;;;;;;;;;12.97;89.98;97922.79;1720577;82;22076;-83
2022/05/29 06:17:53;;;;;;;;;;;;;;;13.15;90.02;97926.91;1723102;83;21175;-85
2022/05/29 06:20:20;;;;;;;;;;;;;;;13.02;89.61;97930.73;1722891;83;24501;-83
2022/05/29 06:22:46;;;;;;;;;;;;;;;12.96;89.40;97926.38;1719703;82;20213;-88
2022/05/29 06:25:12;;;;;;;;;;;;;;;12.88;89.05;97924.89;1721145;82;24732;-83
2022/05/29 06:27:40;;;;;;;;;;;;;;;13.00;89.24;97926.45;1720050;83;21941;-88
2022/05/29 06:30:09;;;;;;;;;;;;;;;13.03;89.14;97928.47;1723233;83;26783;-85
2022/05/29 06:32:35;;;;;;;;;;;;;;;13.07;89.11;97925.43;1721996;81;24436;-84
2022/05/29 06:35:02;;;;;;;;;;;;;;;13.16;89.09;97923.81;1722075;83;20221;-87
2022/05/29 06:37:31;;;;;;;;;;;;;;;13.23;88.84;97918.37;1719806;81;24740;-88
2022/05/29 06:39:58;;;;;;;;;;;;;;;13.33;88.64;97911.32;1700038;83;21760;-87
2022/05/29 06:42:24;;;;;;;;;;;;;;;13.48;88.34;97904.69;1718904;82;26872;-88
2022/05/29 06:44:50;;;;;;;;;;;;;;;13.57;87.90;97907.81;1719410;82;24644;-88
2022/05/29 06:47:17;;;;;;;;;;;;;;;13.68;87.66;97909.47;1720081;81;20256;-87
2022/05/29 06:49:45;;;;;;;;;;;;;;;13.51;86.93;97905.73;1711648;83;24818;-87
2022/05/29 06:52:11;;;;;;;;;;;;;;;13.34;86.26;97909.88;1713695;82;21946;-85
2022/05/29 06:54:38;;;;;;;;;;;;;;;13.17;85.44;97912.34;1711528;83;25689;-85
2022/05/29 06:57:12;;;;;;;;;;;;;;;13.18;85.14;97916.63;1711479;83;24576;-82
2022/05/29 07:07:38;;;;;;;;;;;;;;;13.08;83.77;97899.52;1684603;83;20917;-88
2022/05/29 07:10:04;;;;;;;;;;;;;;;13.29;84.11;97896.32;1712242;82;20854;-83
2022/05/29 07:12:31;;;;;;;;;;;;;;;13.44;84.27;97891.48;1714516;82;20495;-83
2022/05/29 07:15:00;;;;;;;;;;;;;;;13.60;84.48;97887.80;1711789;83;24941;-83
2022/05/29 07:17:27;;;;;;;;;;;;;;;13.57;84.10;97886.78;1713026;83;21997;-88
2022/05/29 07:19:53;;;;;;;;;;;;;;;13.62;83.74;97887.20;1711540;82;25969;-88
2022/05/29 07:22:19;;;;;;;;;;;;;;;13.70;83.38;97881.22;1715562;83;24400;-88
2022/05/29 07:24:46;;;;;;;;;;;;;;;13.84;83.32;97883.44;1715992;82;20236;-88
2022/05/29 07:27:12;;;;;;;;;;;;;;;13.94;83.24;97875.52;1715249;82;24790;-87
2022/05/29 07:29:38;;;;;;;;;;;;;;;14.06;83.17;97883.59;1716281;83;21891;-87
2022/05/29 07:32:06;;;;;;;;;;;;;;;14.06;82.83;97891.01;1715857;83;26035;-88
2022/05/29 07:34:32;;;;;;;;;;;;;;;14.17;82.96;97890.84;1715134;83;24222;-88
2022/05/29 07:37:06;;;;;;;;;;;;;;;14.18;82.80;97886.41;1715493;83;20261;-87
2022/05/29 07:39:40;;;;;;;;;;;;;;;14.07;81.91;97878.69;1715223;83;24941;-88
2022/05/29 07:44:53;;;;;;;;;;;;;;;14.03;81.06;97875.97;1715489;83;25997;-88
2022/05/29 07:47:20;;;;;;;;;;;;;;;14.01;80.58;97876.62;1713356;81;24506;-83
2022/05/29 07:49:45;;;;;;;;;;;;;;;14.08;80.50;97877.20;1705517;84;20720;-82
2022/05/29 07:52:11;;;;;;;;;;;;;;;14.17;80.55;97882.12;1706654;82;20308;-85
2022/05/29 07:54:37;;;;;;;;;;;;;;;14.30;80.83;97877.34;1706623;84;20332;-85
2022/05/29 07:57:04;;;;;;;;;;;;;;;14.45;81.13;97879.08;1703406;82;26693;-83
2022/05/29 07:59:30;;;;;;;;;;;;;;;14.65;81.49;97876.20;1706418;84;24512;-83
2022/05/29 08:01:56;;;;;;;;;;;;;;;14.94;81.81;97877.86;1706506;84;20253;-83
2022/05/29 08:04:22;;;;;;;;;;;;;;;15.19;81.96;97878.94;1703696;82;20296;-85
2022/05/29 08:06:49;;;;;;;;;;;;;;;15.33;82.11;97872.64;1704405;84;21931;-83
2022/05/29 08:09:15;;;;;;;;;;;;;;;15.47;82.04;97877.41;1705767;84;26040;-88
2022/05/29 08:11:43;;;;;;;;;;;;;;;15.50;81.94;97874.45;1705444;84;24365;-88
2022/05/29 08:14:13;;;;;;;;;;;;;;;15.60;81.60;97874.40;1705069;84;20305;-82
2022/05/29 08:16:38;;;;;;;;;;;;;;;15.71;81.00;97868.08;1705140;82;25489;-82
2022/05/29 08:19:04;;;;;;;;;;;;;;;15.80;80.24;97865.84;1703354;84;21978;-85
2022/05/29 08:21:31;;;;;;;;;;;;;;;15.84;79.58;97862.73;1705631;84;26028;-88
2022/05/29 08:32:10;;;;;;;;;;;;;;;16.15;77.25;97845.93;1706738;84;22031;-82
2022/05/29 08:34:36;;;;;;;;;;;;;;;16.14;76.60;97848.27;1705646;84;21010;-84
2022/05/29 08:37:03;;;;;;;;;;;;;;;16.14;76.05;97849.58;1706293;84;20318;-82
2022/05/29 08:39:29;;;;;;;;;;;;;;;16.19;75.77;97845.98;1683263;84;20433;-82
2022/05/29 08:41:57;;;;;;;;;;;;;;;16.19;75.23;97845.15;1705601;84;24767;-82
2022/05/29 08:44:24;;;;;;;;;;;;;;;16.26;75.03;97841.70;1705409;84;22112;-88
2022/05/29 08:46:52;;;;;;;;;;;;;;;16.36;74.81;97838.97;1707495;83;25947;-88
2022/05/29 08:49:26;;;;;;;;;;;;;;;16.46;74.54;97840.16;1731648;81;25238;-88
2022/05/29 08:52:00;;;;;;;;;;;;;;;16.50;74.05;97841.00;1734836;82;20185;-82
2022/05/29 08:54:30;;;;;;;;;;;;;;;16.60;73.77;97843.55;1731474;82;25508;-82
2022/05/29 08:56:58;;;;;;;;;;;;;;;16.65;73.35;97840.77;1736518;82;23542;-84
2022/05/29 08:59:26;;;;;;;;;;;;;;;16.79;73.34;97839.83;1733650;81;25985;-84
2022/05/29 09:01:57;;;;;;;;;;;;;;;16.92;73.28;97837.05;1736503;82;24398;-85
2022/05/29 09:04:25;;;;;;;;;;;;;;;17.01;72.77;97834.77;1736980;81;20354;-84
2022/05/29 09:06:52;;;;;;;;;;;;;;;17.13;72.34;97831.30;1736097;81;24743;-88
2022/05/29 09:09:26;;;;;;;;;;;;;;;17.15;71.58;97834.62;1735615;81;22082;-88
2022/05/29 09:11:54;;;;;;;;;;;;;;;17.15;71.05;97830.16;1735282;81;25931;-84
2022/05/29 09:14:25;;;;;;;;;;;;;;;17.33;70.73;97830.02;1707582;82;25201;-84
2022/05/29 09:16:57;;;;;;;;;;;;;;;17.41;70.22;97832.66;1735393;82;20260;-84
2022/05/29 09:19:40;;;;;;;;;;;;;;;17.15;68.91;97826.69;1734277;81;24729;-85
2022/05/29 09:22:20;;;;;;;;;;;;;;;17.05;68.19;97822.88;1731415;81;22230;-84
2022/05/29 09:24:51;;;;;;;;;;;;;;;17.03;67.63;97822.69;1735679;81;26123;-84
2022/05/29 09:27:18;;;;;;;;;;;;;;;16.85;66.97;97820.20;1733667;81;24411;-83
2022/05/29 09:29:44;;;;;;;;;;;;;;;16.60;65.48;97822.41;1732272;82;20269;-83
2022/05/29 09:32:15;;;;;;;;;;;;;;;16.40;64.24;97817.86;1736295;82;24817;-83
2022/05/29 09:34:42;;;;;;;;;;;;;;;16.45;63.97;97810.77;1736148;82;21951;-89
2022/05/29 09:37:22;;;;;;;;;;;;;;;16.54;63.83;97811.13;1737064;82;25993;-85
2022/05/29 09:39:50;;;;;;;;;;;;;;;16.68;63.74;97807.92;1733585;82;24403;-89
2022/05/29 09:42:27;;;;;;;;;;;;;;;16.94;63.76;97803.84;1736432;81;20333;-84
2022/05/29 09:44:58;;;;;;;;;;;;;;;17.22;64.03;97797.78;1736678;82;24782;-83
2022/05/29 09:50:16;;;;;;;;;;;;;;;17.50;63.35;97814.50;1736478;82;26110;-85
2022/05/29 09:52:44;;;;;;;;;;;;;;;17.54;62.56;97802.58;1736951;82;24515;-88
2022/05/29 09:55:21;;;;;;;;;;;;;;;17.46;61.68;97805.70;1736164;82;20338;-88
2022/05/29 09:58:01;;;;;;;;;;;;;;;17.33;60.85;97808.03;1735651;82;24796;-88
2022/05/29 10:00:29;;;;;;;;;;;;;;;17.46;60.68;97807.86;1735683;82;22033;-88
2022/05/29 10:02:56;;;;;;;;;;;;;;;17.64;60.56;97805.57;1736539;81;25989;-83
2022/05/29 10:05:23;;;;;;;;;;;;;;;17.84;60.57;97806.86;1667774;85;24126;-83
2022/05/29 10:07:49;;;;;;;;;;;;;;;18.04;60.61;97803.37;1668652;86;20170;-83
2022/05/29 10:10:29;;;;;;;;;;;;;;;18.29;60.75;97803.61;1692235;83;20222;-88
2022/05/29 10:12:57;;;;;;;;;;;;;;;18.32;60.32;97806.77;1666455;86;21985;-88
2022/05/29 10:15:28;;;;;;;;;;;;;;;18.29;59.66;97802.29;1727328;81;26013;-88
2022/05/29 10:17:55;;;;;;;;;;;;;;;18.23;59.04;97795.85;1729560;83;24417;-83
2022/05/29 10:20:32;;;;;;;;;;;;;;;18.35;59.02;97796.31;1729631;83;20316;-88
2022/05/29 10:23:00;;;;;;;;;;;;;;;18.42;58.79;97803.91;1730030;83;24767;-84
2022/05/29 10:25:27;;;;;;;;;;;;;;;18.12;57.36;97802.84;1728677;81;22010;-83
2022/05/29 10:27:55;;;;;;;;;;;;;;;17.84;56.15;97806.86;1728706;81;26014;-86
2022/05/29 10:30:31;;;;;;;;;;;;;;;17.81;55.87;97799.27;1727152;81;24542;-83
2022/05/29 10:33:08;;;;;;;;;;;;;;;17.97;55.89;97796.09;1728350;81;20216;-83
2022/05/29 10:35:36;;;;;;;;;;;;;;;18.13;56.05;97799.20;1727051;81;24752;-83
2022/05/29 10:38:04;;;;;;;;;;;;;;;18.01;55.52;97797.90;1728818;83;21990;-88
2022/05/29 10:40:31;;;;;;;;;;;;;;;18.01;55.34;97797.90;1721771;81;26685;-85
2022/05/29 10:43:01;;;;;;;;;;;;;;;17.86;54.74;97794.30;1728557;83;25264;-88
2022/05/29 10:45:29;;;;;;;;;;;;;;;17.88;54.50;97797.61;1729290;81;20499;-89
2022/05/29 10:47:57;;;;;;;;;;;;;;;17.88;54.31;97789.67;1726857;81;24803;-83
2022/05/29 10:50:40;;;;;;;;;;;;;;;17.90;54.22;97781.88;1676323;84;22084;-82
2022/05/29 10:53:14;;;;;;;;;;;;;;;17.99;54.20;97780.05;1674984;84;26691;-83
2022/05/29 10:55:42;;;;;;;;;;;;;;;18.08;54.00;97788.29;1677671;83;24675;-82
2022/05/29 10:58:26;;;;;;;;;;;;;;;18.29;54.15;97782.42;1681259;83;20329;-89
2022/05/29 11:01:03;;;;;;;;;;;;;;;18.57;54.23;97783.66;1676518;83;24764;-83
2022/05/29 11:03:43;;;;;;;;;;;;;;;18.70;53.92;97782.61;1672983;84;22741;-83
2022/05/29 11:06:27;;;;;;;;;;;;;;;18.88;53.94;97782.82;1676298;83;29762;-88
2022/05/29 11:08:55;;;;;;;;;;;;;;;19.06;53.83;97782.87;1680514;84;24525;-83
2022/05/29 11:11:32;;;;;;;;;;;;;;;19.18;53.81;97779.32;1676682;83;20229;-82
2022/05/29 11:14:03;;;;;;;;;;;;;;;19.25;53.77;97773.64;1676624;83;24925;-85
2022/05/29 11:16:37;;;;;;;;;;;;;;;19.12;53.29;97754.33;1638984;86;22026;-83
2022/05/29 11:19:05;;;;;;;;;;;;;;;18.93;52.82;97748.68;1637803;87;25658;-83
2022/05/29 11:21:36;;;;;;;;;;;;;;;18.77;52.51;97732.35;1675969;84;25099;-85
2022/05/29 11:24:21;;;;;;;;;;;;;;;18.56;52.02;97725.03;1680665;83;20298;-85
2022/05/29 11:26:58;;;;;;;;;;;;;;;18.24;51.14;97723.84;1674303;84;24816;-83
2022/05/29 11:29:39;;;;;;;;;;;;;;;18.22;51.07;97717.38;1673569;82;22153;-83
2022/05/29 11:32:07;;;;;;;;;;;;;;;18.19;50.78;97716.91;1640208;85;26151;-83
2022/05/29 11:34:52;;;;;;;;;;;;;;;18.27;50.72;97702.32;1652418;85;24579;-83
2022/05/29 11:37:36;;;;;;;;;;;;;;;18.41;50.81;97716.14;1675551;83;21232;-86
2022/05/29 11:40:21;;;;;;;;;;;;;;;18.68;51.05;97722.31;1675974;84;24850;-84
2022/05/29 11:42:49;;;;;;;;;;;;;;;18.86;50.99;97725.19;1674993;84;22020;-84
2022/05/29 11:45:16;;;;;;;;;;;;;;;19.00;50.81;97721.76;1675913;84;27125;-83
2022/05/29 11:53:31;;;;;;;;;;;;;;;19.54;50.20;97725.13;1695201;84;24766;-89
2022/05/29 11:55:56;;;;;;;;;;;;;;;19.74;50.01;97729.44;1650335;86;21998;-82
2022/05/29 11:58:29;;;;;;;;;;;;;;;19.83;49.92;97734.97;1652286;86;26987;-82
2022/05/29 12:00:55;;;;;;;;;;;;;;;19.77;49.36;97729.06;1651362;85;24643;-82
2022/05/29 12:03:23;;;;;;;;;;;;;;;19.33;48.40;97728.95;1704083;84;20217;-88
2022/05/29 12:05:53;;;;;;;;;;;;;;;19.03;47.83;97724.07;1707178;83;24996;-84
2022/05/29 12:08:21;;;;;;;;;;;;;;;18.79;47.37;97727.21;1707464;82;21926;-83
2022/05/29 12:11:05;;;;;;;;;;;;;;;18.53;46.71;97716.08;1701495;84;26077;-84
2022/05/29 12:13:33;;;;;;;;;;;;;;;18.42;46.37;97719.63;1701454;84;24430;-84
2022/05/29 12:16:05;;;;;;;;;;;;;;;18.26;45.95;97716.06;1696746;83;20257;-88
2022/05/29 12:18:34;;;;;;;;;;;;;;;18.25;45.83;97718.38;1704033;83;24781;-83
2022/05/29 12:21:01;;;;;;;;;;;;;;;18.43;45.92;97715.48;1702329;84;22017;-82
2022/05/29 12:23:31;;;;;;;;;;;;;;;18.61;45.98;97715.22;1702768;84;27011;-85
2022/05/29 12:26:10;;;;;;;;;;;;;;;18.87;46.11;97706.95;1699662;83;25042;-82
2022/05/29 12:28:41;;;;;;;;;;;;;;;18.96;45.90;97709.36;1705171;83;20281;-89
2022/05/29 12:31:09;;;;;;;;;;;;;;;18.89;45.56;97715.04;1702989;82;24775;-85
2022/05/29 12:33:35;;;;;;;;;;;;;;;19.06;45.51;97715.75;1707768;82;21991;-85
2022/05/29 12:36:21;;;;;;;;;;;;;;;19.31;45.73;97716.38;1705107;83;21195;-88
2022/05/29 12:39:04;;;;;;;;;;;;;;;19.49;45.67;97717.72;1703869;83;24393;-88
2022/05/29 12:41:31;;;;;;;;;;;;;;;19.66;45.75;97721.54;1704085;83;20349;-84
2022/05/29 12:44:18;;;;;;;;;;;;;;;19.64;45.65;97717.73;1702247;84;25456;-83
2022/05/29 12:47:03;;;;;;;;;;;;;;;19.49;45.44;97717.72;1697637;82;22616;-82
2022/05/29 12:49:31;;;;;;;;;;;;;;;19.22;45.13;97717.77;1704749;83;25953;-88
2022/05/29 12:51:59;;;;;;;;;;;;;;;19.06;44.97;97708.62;1712895;83;24781;-85
2022/05/29 12:54:31;;;;;;;;;;;;;;;19.14;44.94;97708.56;1712628;82;20198;-85
2022/05/29 12:57:06;;;;;;;;;;;;;;;19.22;44.92;97702.34;1712886;82;24881;-84
2022/05/29 12:59:43;;;;;;;;;;;;;;;19.39;44.94;97699.87;1696787;83;22069;-84
2022/05/29 13:02:14;;;;;;;;;;;;;;;19.53;44.90;97703.07;1685165;85;26752;-88
2022/05/29 13:04:47;;;;;;;;;;;;;;;19.54;44.62;97702.07;1654216;86;24584;-83
2022/05/29 13:07:24;;;;;;;;;;;;;;;19.54;44.46;97699.42;1712810;83;20254;-86
2022/05/29 13:09:58;;;;;;;;;;;;;;;19.54;44.38;97702.07;1710917;83;24681;-84
2022/05/29 13:12:32;;;;;;;;;;;;;;;19.57;44.45;97703.55;1711843;83;21973;-86
2022/05/29 13:14:59;;;;;;;;;;;;;;;19.44;44.19;97700.66;1712737;83;26046;-86
2022/05/29 13:17:31;;;;;;;;;;;;;;;19.36;44.13;97700.25;1712064;83;24405;-89
2022/05/29 13:20:09;;;;;;;;;;;;;;;19.39;44.13;97695.89;1714264;83;20633;-84
2022/05/29 13:22:57;;;;;;;;;;;;;;;19.29;44.02;97704.61;1713535;83;24810;-88
2022/05/29 13:25:25;;;;;;;;;;;;;;;18.91;43.61;97689.69;1712566;83;22023;-84
2022/05/29 13:27:52;;;;;;;;;;;;;;;18.74;43.54;97695.60;1713864;83;26074;-85
2022/05/29 13:30:38;;;;;;;;;;;;;;;18.56;43.36;97686.60;1712806;83;24433;-84
2022/05/29 13:33:25;;;;;;;;;;;;;;;18.35;43.09;97686.37;1711798;83;20173;-84
2022/05/29 13:35:51;;;;;;;;;;;;;;;18.37;43.08;97685.21;1712857;83;24803;-84